sensor_id;sensor_type;location;lat;lon;timestamp;P1;durP1;ratioP1;P2;durP2;ratioP2
71288;SDS011;59068;52.502;9.860;2023-08-07T00:02:00;4.30;;;3.90;;
71288;SDS011;59068;52.502;9.860;2023-08-07T00:04:26;5.10;;;3.70;;
71288;SDS011;59068;52.502;9.860;2023-08-07T00:06:53;4.07;;;3.77;;
71288;SDS011;59068;52.502;9.860;2023-08-07T00:09:21;4.17;;;3.53;;
71288;SDS011;59068;52.502;9.860;2023-08-07T00:11:47;4.93;;;3.90;;
71288;SDS011;59068;52.502;9.860;2023-08-07T00:14:14;4.77;;;4.03;;
71288;SDS011;59068;52.502;9.860;2023-08-07T00:16:41;4.27;;;3.53;;
71288;SDS011;59068;52.502;9.860;2023-08-07T00:19:07;4.90;;;4.20;;
71288;SDS011;59068;52.502;9.860;2023-08-07T00:21:34;4.23;;;3.87;;
71288;SDS011;59068;52.502;9.860;2023-08-07T00:24:03;5.27;;;4.53;;
71288;SDS011;59068;52.502;9.860;2023-08-07T00:26:31;4.13;;;3.70;;
71288;SDS011;59068;52.502;9.860;2023-08-07T00:28:58;4.20;;;3.80;;
71288;SDS011;59068;52.502;9.860;2023-08-07T00:31:24;4.50;;;4.10;;
71288;SDS011;59068;52.502;9.860;2023-08-07T00:33:51;5.57;;;4.27;;
71288;SDS011;59068;52.502;9.860;2023-08-07T00:36:19;4.60;;;4.20;;
71288;SDS011;59068;52.502;9.860;2023-08-07T00:38:45;5.53;;;4.47;;
71288;SDS011;59068;52.502;9.860;2023-08-07T00:41:12;4.43;;;4.00;;
71288;SDS011;59068;52.502;9.860;2023-08-07T00:43:40;4.63;;;4.23;;
71288;SDS011;59068;52.502;9.860;2023-08-07T00:46:07;4.80;;;4.07;;
71288;SDS011;59068;52.502;9.860;2023-08-07T00:48:33;5.23;;;4.60;;
71288;SDS011;59068;52.502;9.860;2023-08-07T00:51:00;6.53;;;4.13;;
71288;SDS011;59068;52.502;9.860;2023-08-07T00:53:27;5.90;;;4.30;;
71288;SDS011;59068;52.502;9.860;2023-08-07T00:55:53;5.17;;;4.67;;
71288;SDS011;59068;52.502;9.860;2023-08-07T00:58:20;6.83;;;5.07;;
71288;SDS011;59068;52.502;9.860;2023-08-07T01:00:47;4.93;;;4.43;;
71288;SDS011;59068;52.502;9.860;2023-08-07T01:03:14;5.23;;;4.70;;
71288;SDS011;59068;52.502;9.860;2023-08-07T01:05:40;4.73;;;4.30;;
71288;SDS011;59068;52.502;9.860;2023-08-07T01:08:07;4.83;;;4.33;;
71288;SDS011;59068;52.502;9.860;2023-08-07T01:10:35;4.53;;;4.13;;
71288;SDS011;59068;52.502;9.860;2023-08-07T01:13:10;3.87;;;3.50;;
71288;SDS011;59068;52.502;9.860;2023-08-07T01:15:42;5.53;;;4.20;;
71288;SDS011;59068;52.502;9.860;2023-08-07T01:18:10;4.87;;;3.63;;
71288;SDS011;59068;52.502;9.860;2023-08-07T01:20:37;5.07;;;4.57;;
71288;SDS011;59068;52.502;9.860;2023-08-07T01:23:05;4.27;;;3.87;;
71288;SDS011;59068;52.502;9.860;2023-08-07T01:25:32;4.30;;;3.90;;
71288;SDS011;59068;52.502;9.860;2023-08-07T01:28:02;4.87;;;4.23;;
71288;SDS011;59068;52.502;9.860;2023-08-07T01:30:33;4.57;;;4.20;;
71288;SDS011;59068;52.502;9.860;2023-08-07T01:33:04;4.90;;;4.50;;
71288;SDS011;59068;52.502;9.860;2023-08-07T01:35:35;5.63;;;4.97;;
71288;SDS011;59068;52.502;9.860;2023-08-07T01:38:06;6.53;;;5.33;;
71288;SDS011;59068;52.502;9.860;2023-08-07T01:40:33;8.07;;;7.40;;
71288;SDS011;59068;52.502;9.860;2023-08-07T01:43:01;7.33;;;6.73;;
71288;SDS011;59068;52.502;9.860;2023-08-07T01:45:28;7.90;;;7.23;;
71288;SDS011;59068;52.502;9.860;2023-08-07T01:47:55;8.27;;;7.57;;
71288;SDS011;59068;52.502;9.860;2023-08-07T01:50:22;9.20;;;7.90;;
71288;SDS011;59068;52.502;9.860;2023-08-07T01:52:49;9.50;;;8.60;;
71288;SDS011;59068;52.502;9.860;2023-08-07T01:55:18;10.17;;;9.10;;
71288;SDS011;59068;52.502;9.860;2023-08-07T01:57:46;9.80;;;8.67;;
71288;SDS011;59068;52.502;9.860;2023-08-07T02:00:13;10.67;;;9.47;;
71288;SDS011;59068;52.502;9.860;2023-08-07T02:02:40;9.93;;;9.03;;
71288;SDS011;59068;52.502;9.860;2023-08-07T02:05:10;9.93;;;8.93;;
71288;SDS011;59068;52.502;9.860;2023-08-07T02:07:37;11.30;;;10.30;;
71288;SDS011;59068;52.502;9.860;2023-08-07T02:10:04;10.97;;;9.90;;
71288;SDS011;59068;52.502;9.860;2023-08-07T02:12:32;11.90;;;10.80;;
71288;SDS011;59068;52.502;9.860;2023-08-07T02:14:59;10.60;;;9.57;;
71288;SDS011;59068;52.502;9.860;2023-08-07T02:17:26;13.17;;;11.07;;
71288;SDS011;59068;52.502;9.860;2023-08-07T02:19:55;12.27;;;10.47;;
71288;SDS011;59068;52.502;9.860;2023-08-07T02:22:21;9.60;;;8.60;;
71288;SDS011;59068;52.502;9.860;2023-08-07T02:24:48;11.57;;;10.37;;
71288;SDS011;59068;52.502;9.860;2023-08-07T02:27:15;11.03;;;9.93;;
71288;SDS011;59068;52.502;9.860;2023-08-07T02:29:43;10.90;;;9.90;;
71288;SDS011;59068;52.502;9.860;2023-08-07T02:32:10;10.50;;;9.60;;
71288;SDS011;59068;52.502;9.860;2023-08-07T02:34:37;11.47;;;10.27;;
71288;SDS011;59068;52.502;9.860;2023-08-07T02:37:03;10.63;;;9.63;;
71288;SDS011;59068;52.502;9.860;2023-08-07T02:39:30;10.30;;;9.40;;
71288;SDS011;59068;52.502;9.860;2023-08-07T02:41:57;10.53;;;9.53;;
71288;SDS011;59068;52.502;9.860;2023-08-07T02:44:23;9.40;;;8.50;;
71288;SDS011;59068;52.502;9.860;2023-08-07T02:46:51;10.30;;;9.27;;
71288;SDS011;59068;52.502;9.860;2023-08-07T02:49:18;8.73;;;8.03;;
71288;SDS011;59068;52.502;9.860;2023-08-07T02:51:45;8.97;;;8.17;;
71288;SDS011;59068;52.502;9.860;2023-08-07T02:54:11;8.23;;;7.43;;
71288;SDS011;59068;52.502;9.860;2023-08-07T02:56:38;9.17;;;8.27;;
71288;SDS011;59068;52.502;9.860;2023-08-07T02:59:05;8.40;;;7.60;;
71288;SDS011;59068;52.502;9.860;2023-08-07T03:01:31;7.60;;;6.83;;
71288;SDS011;59068;52.502;9.860;2023-08-07T03:04:00;8.50;;;7.33;;
71288;SDS011;59068;52.502;9.860;2023-08-07T03:06:26;7.97;;;7.17;;
71288;SDS011;59068;52.502;9.860;2023-08-07T03:08:53;8.17;;;7.07;;
71288;SDS011;59068;52.502;9.860;2023-08-07T03:11:19;7.47;;;6.73;;
71288;SDS011;59068;52.502;9.860;2023-08-07T03:13:46;7.70;;;6.90;;
71288;SDS011;59068;52.502;9.860;2023-08-07T03:16:14;8.70;;;6.80;;
71288;SDS011;59068;52.502;9.860;2023-08-07T03:18:40;9.17;;;7.57;;
71288;SDS011;59068;52.502;9.860;2023-08-07T03:21:08;7.60;;;6.83;;
71288;SDS011;59068;52.502;9.860;2023-08-07T03:23:35;8.17;;;7.10;;
71288;SDS011;59068;52.502;9.860;2023-08-07T03:26:02;8.83;;;7.53;;
71288;SDS011;59068;52.502;9.860;2023-08-07T03:28:29;8.97;;;7.47;;
71288;SDS011;59068;52.502;9.860;2023-08-07T03:30:56;8.57;;;7.50;;
71288;SDS011;59068;52.502;9.860;2023-08-07T03:33:23;8.70;;;6.43;;
71288;SDS011;59068;52.502;9.860;2023-08-07T03:35:49;8.70;;;7.17;;
71288;SDS011;59068;52.502;9.860;2023-08-07T03:38:17;8.27;;;7.47;;
71288;SDS011;59068;52.502;9.860;2023-08-07T03:40:44;8.83;;;7.30;;
71288;SDS011;59068;52.502;9.860;2023-08-07T03:43:11;10.37;;;7.60;;
71288;SDS011;59068;52.502;9.860;2023-08-07T03:45:37;8.87;;;7.97;;
71288;SDS011;59068;52.502;9.860;2023-08-07T03:48:04;9.97;;;7.47;;
71288;SDS011;59068;52.502;9.860;2023-08-07T03:50:31;8.60;;;7.40;;
71288;SDS011;59068;52.502;9.860;2023-08-07T03:53:00;7.83;;;6.83;;
71288;SDS011;59068;52.502;9.860;2023-08-07T03:55:28;10.27;;;8.10;;
71288;SDS011;59068;52.502;9.860;2023-08-07T03:57:54;8.70;;;7.70;;
71288;SDS011;59068;52.502;9.860;2023-08-07T04:00:21;9.73;;;8.53;;
71288;SDS011;59068;52.502;9.860;2023-08-07T04:02:48;9.10;;;8.20;;
71288;SDS011;59068;52.502;9.860;2023-08-07T04:05:14;11.00;;;8.30;;
71288;SDS011;59068;52.502;9.860;2023-08-07T04:07:41;10.30;;;7.60;;
71288;SDS011;59068;52.502;9.860;2023-08-07T04:10:08;9.30;;;6.83;;
71288;SDS011;59068;52.502;9.860;2023-08-07T04:12:36;8.00;;;6.77;;
71288;SDS011;59068;52.502;9.860;2023-08-07T04:15:03;8.43;;;7.40;;
71288;SDS011;59068;52.502;9.860;2023-08-07T04:17:30;8.90;;;7.50;;
71288;SDS011;59068;52.502;9.860;2023-08-07T04:19:57;10.03;;;7.63;;
71288;SDS011;59068;52.502;9.860;2023-08-07T04:22:23;10.70;;;8.20;;
71288;SDS011;59068;52.502;9.860;2023-08-07T04:24:50;8.30;;;7.60;;
71288;SDS011;59068;52.502;9.860;2023-08-07T04:27:16;9.57;;;8.20;;
71288;SDS011;59068;52.502;9.860;2023-08-07T04:29:44;10.30;;;8.10;;
71288;SDS011;59068;52.502;9.860;2023-08-07T04:32:11;9.63;;;8.40;;
71288;SDS011;59068;52.502;9.860;2023-08-07T04:34:37;9.53;;;8.53;;
71288;SDS011;59068;52.502;9.860;2023-08-07T04:37:04;9.17;;;8.27;;
71288;SDS011;59068;52.502;9.860;2023-08-07T04:39:31;9.03;;;8.10;;
71288;SDS011;59068;52.502;9.860;2023-08-07T04:41:58;11.10;;;8.70;;
71288;SDS011;59068;52.502;9.860;2023-08-07T04:44:24;9.23;;;8.43;;
71288;SDS011;59068;52.502;9.860;2023-08-07T04:46:52;9.57;;;8.53;;
71288;SDS011;59068;52.502;9.860;2023-08-07T04:49:18;9.57;;;8.50;;
71288;SDS011;59068;52.502;9.860;2023-08-07T04:51:45;10.07;;;8.43;;
71288;SDS011;59068;52.502;9.860;2023-08-07T04:54:11;9.73;;;8.77;;
71288;SDS011;59068;52.502;9.860;2023-08-07T04:56:38;9.30;;;7.97;;
71288;SDS011;59068;52.502;9.860;2023-08-07T04:59:05;10.87;;;8.40;;
71288;SDS011;59068;52.502;9.860;2023-08-07T05:01:32;11.00;;;8.23;;
71288;SDS011;59068;52.502;9.860;2023-08-07T05:04:00;8.87;;;7.43;;
71288;SDS011;59068;52.502;9.860;2023-08-07T05:06:27;10.80;;;7.87;;
71288;SDS011;59068;52.502;9.860;2023-08-07T05:08:53;8.70;;;7.87;;
71288;SDS011;59068;52.502;9.860;2023-08-07T05:11:20;8.73;;;7.80;;
71288;SDS011;59068;52.502;9.860;2023-08-07T05:13:46;10.10;;;7.97;;
71288;SDS011;59068;52.502;9.860;2023-08-07T05:16:13;8.20;;;7.40;;
71288;SDS011;59068;52.502;9.860;2023-08-07T05:18:39;7.60;;;7.00;;
71288;SDS011;59068;52.502;9.860;2023-08-07T05:21:07;7.57;;;6.73;;
71288;SDS011;59068;52.502;9.860;2023-08-07T05:23:34;8.63;;;7.83;;
71288;SDS011;59068;52.502;9.860;2023-08-07T05:26:01;7.93;;;6.60;;
71288;SDS011;59068;52.502;9.860;2023-08-07T05:28:28;7.73;;;7.00;;
71288;SDS011;59068;52.502;9.860;2023-08-07T05:30:55;8.20;;;7.40;;
71288;SDS011;59068;52.502;9.860;2023-08-07T05:33:21;9.73;;;7.00;;
71288;SDS011;59068;52.502;9.860;2023-08-07T05:35:48;7.60;;;6.83;;
71288;SDS011;59068;52.502;9.860;2023-08-07T05:38:16;6.83;;;6.13;;
71288;SDS011;59068;52.502;9.860;2023-08-07T05:40:42;6.03;;;5.47;;
71288;SDS011;59068;52.502;9.860;2023-08-07T05:43:09;6.67;;;6.00;;
71288;SDS011;59068;52.502;9.860;2023-08-07T05:45:36;9.40;;;6.33;;
71288;SDS011;59068;52.502;9.860;2023-08-07T05:48:02;7.97;;;5.67;;
71288;SDS011;59068;52.502;9.860;2023-08-07T05:50:29;6.80;;;5.93;;
71288;SDS011;59068;52.502;9.860;2023-08-07T05:52:56;6.47;;;5.53;;
71288;SDS011;59068;52.502;9.860;2023-08-07T05:55:24;6.60;;;6.00;;
71288;SDS011;59068;52.502;9.860;2023-08-07T05:57:50;9.37;;;7.00;;
71288;SDS011;59068;52.502;9.860;2023-08-07T06:00:17;6.73;;;5.67;;
71288;SDS011;59068;52.502;9.860;2023-08-07T06:02:44;6.00;;;5.40;;
71288;SDS011;59068;52.502;9.860;2023-08-07T06:05:14;6.43;;;5.93;;
71288;SDS011;59068;52.502;9.860;2023-08-07T06:07:41;6.33;;;5.77;;
71288;SDS011;59068;52.502;9.860;2023-08-07T06:10:08;5.90;;;5.40;;
71288;SDS011;59068;52.502;9.860;2023-08-07T06:12:36;6.40;;;5.70;;
71288;SDS011;59068;52.502;9.860;2023-08-07T06:15:03;5.37;;;4.83;;
71288;SDS011;59068;52.502;9.860;2023-08-07T06:17:30;5.67;;;4.87;;
71288;SDS011;59068;52.502;9.860;2023-08-07T06:19:57;8.73;;;5.73;;
71288;SDS011;59068;52.502;9.860;2023-08-07T06:22:24;7.50;;;5.60;;
71288;SDS011;59068;52.502;9.860;2023-08-07T06:24:50;5.63;;;5.13;;
71288;SDS011;59068;52.502;9.860;2023-08-07T06:27:17;5.60;;;5.07;;
71288;SDS011;59068;52.502;9.860;2023-08-07T06:29:45;6.90;;;5.03;;
71288;SDS011;59068;52.502;9.860;2023-08-07T06:32:12;4.93;;;4.53;;
71288;SDS011;59068;52.502;9.860;2023-08-07T06:34:38;6.33;;;4.80;;
71288;SDS011;59068;52.502;9.860;2023-08-07T06:37:05;4.20;;;3.77;;
71288;SDS011;59068;52.502;9.860;2023-08-07T06:39:31;4.57;;;4.27;;
71288;SDS011;59068;52.502;9.860;2023-08-07T06:41:58;4.73;;;3.90;;
71288;SDS011;59068;52.502;9.860;2023-08-07T06:44:25;3.97;;;3.57;;
71288;SDS011;59068;52.502;9.860;2023-08-07T06:46:53;5.23;;;4.23;;
71288;SDS011;59068;52.502;9.860;2023-08-07T06:49:20;4.37;;;3.97;;
71288;SDS011;59068;52.502;9.860;2023-08-07T06:51:47;4.57;;;4.03;;
71288;SDS011;59068;52.502;9.860;2023-08-07T06:54:13;3.97;;;3.67;;
71288;SDS011;59068;52.502;9.860;2023-08-07T06:56:40;4.07;;;3.77;;
71288;SDS011;59068;52.502;9.860;2023-08-07T06:59:07;3.70;;;3.50;;
71288;SDS011;59068;52.502;9.860;2023-08-07T07:01:34;3.60;;;3.27;;
71288;SDS011;59068;52.502;9.860;2023-08-07T07:04:02;3.83;;;3.43;;
71288;SDS011;59068;52.502;9.860;2023-08-07T07:06:29;3.70;;;3.20;;
71288;SDS011;59068;52.502;9.860;2023-08-07T07:08:55;4.17;;;3.87;;
71288;SDS011;59068;52.502;9.860;2023-08-07T07:11:22;4.53;;;4.13;;
71288;SDS011;59068;52.502;9.860;2023-08-07T07:13:49;4.40;;;3.50;;
71288;SDS011;59068;52.502;9.860;2023-08-07T07:16:16;3.63;;;3.33;;
71288;SDS011;59068;52.502;9.860;2023-08-07T07:18:43;3.40;;;3.10;;
71288;SDS011;59068;52.502;9.860;2023-08-07T07:21:11;2.90;;;2.70;;
71288;SDS011;59068;52.502;9.860;2023-08-07T07:23:37;3.67;;;2.83;;
71288;SDS011;59068;52.502;9.860;2023-08-07T07:26:04;3.00;;;2.57;;
71288;SDS011;59068;52.502;9.860;2023-08-07T07:28:30;3.33;;;2.60;;
71288;SDS011;59068;52.502;9.860;2023-08-07T07:30:57;3.13;;;2.93;;
71288;SDS011;59068;52.502;9.860;2023-08-07T07:33:23;2.73;;;2.53;;
71288;SDS011;59068;52.502;9.860;2023-08-07T07:35:50;3.17;;;2.87;;
71288;SDS011;59068;52.502;9.860;2023-08-07T07:38:18;3.50;;;3.20;;
71288;SDS011;59068;52.502;9.860;2023-08-07T07:40:45;2.80;;;2.60;;
71288;SDS011;59068;52.502;9.860;2023-08-07T07:43:11;2.80;;;2.60;;
71288;SDS011;59068;52.502;9.860;2023-08-07T07:45:38;2.73;;;2.43;;
71288;SDS011;59068;52.502;9.860;2023-08-07T07:48:05;3.20;;;2.80;;
71288;SDS011;59068;52.502;9.860;2023-08-07T07:50:33;4.60;;;2.80;;
71288;SDS011;59068;52.502;9.860;2023-08-07T07:52:59;3.13;;;2.80;;
71288;SDS011;59068;52.502;9.860;2023-08-07T07:55:27;2.40;;;2.20;;
71288;SDS011;59068;52.502;9.860;2023-08-07T07:57:54;2.30;;;2.10;;
71288;SDS011;59068;52.502;9.860;2023-08-07T08:00:21;2.73;;;2.20;;
71288;SDS011;59068;52.502;9.860;2023-08-07T08:02:51;2.27;;;2.00;;
71288;SDS011;59068;52.502;9.860;2023-08-07T08:05:18;2.60;;;2.20;;
71288;SDS011;59068;52.502;9.860;2023-08-07T08:07:44;2.77;;;2.20;;
71288;SDS011;59068;52.502;9.860;2023-08-07T08:10:11;2.60;;;2.40;;
71288;SDS011;59068;52.502;9.860;2023-08-07T08:12:39;2.50;;;2.33;;
71288;SDS011;59068;52.502;9.860;2023-08-07T08:15:06;4.00;;;2.50;;
71288;SDS011;59068;52.502;9.860;2023-08-07T08:17:33;4.00;;;2.40;;
71288;SDS011;59068;52.502;9.860;2023-08-07T08:20:00;2.50;;;2.00;;
71288;SDS011;59068;52.502;9.860;2023-08-07T08:22:26;2.40;;;2.20;;
71288;SDS011;59068;52.502;9.860;2023-08-07T08:24:53;5.20;;;2.47;;
71288;SDS011;59068;52.502;9.860;2023-08-07T08:27:20;3.40;;;1.97;;
71288;SDS011;59068;52.502;9.860;2023-08-07T08:29:48;2.53;;;1.67;;
71288;SDS011;59068;52.502;9.860;2023-08-07T08:32:14;1.80;;;1.60;;
71288;SDS011;59068;52.502;9.860;2023-08-07T08:34:41;2.87;;;1.90;;
71288;SDS011;59068;52.502;9.860;2023-08-07T08:37:08;4.27;;;1.40;;
71288;SDS011;59068;52.502;9.860;2023-08-07T08:39:36;1.60;;;1.50;;
71288;SDS011;59068;52.502;9.860;2023-08-07T08:42:03;4.23;;;1.60;;
71288;SDS011;59068;52.502;9.860;2023-08-07T08:44:30;2.73;;;1.63;;
71288;SDS011;59068;52.502;9.860;2023-08-07T08:47:00;2.17;;;1.27;;
71288;SDS011;59068;52.502;9.860;2023-08-07T08:49:28;2.83;;;1.60;;
71288;SDS011;59068;52.502;9.860;2023-08-07T08:51:57;3.10;;;1.20;;
71288;SDS011;59068;52.502;9.860;2023-08-07T08:54:23;1.80;;;1.37;;
71288;SDS011;59068;52.502;9.860;2023-08-07T08:56:51;3.60;;;1.73;;
71288;SDS011;59068;52.502;9.860;2023-08-07T08:59:19;3.10;;;1.70;;
71288;SDS011;59068;52.502;9.860;2023-08-07T09:01:46;5.10;;;1.70;;
71288;SDS011;59068;52.502;9.860;2023-08-07T09:04:15;6.47;;;2.13;;
71288;SDS011;59068;52.502;9.860;2023-08-07T09:06:42;2.97;;;1.97;;
71288;SDS011;59068;52.502;9.860;2023-08-07T09:09:09;4.73;;;1.70;;
71288;SDS011;59068;52.502;9.860;2023-08-07T09:11:37;3.47;;;1.53;;
71288;SDS011;59068;52.502;9.860;2023-08-07T09:14:04;4.43;;;1.90;;
71288;SDS011;59068;52.502;9.860;2023-08-07T09:16:31;2.97;;;2.00;;
71288;SDS011;59068;52.502;9.860;2023-08-07T09:18:58;3.63;;;2.07;;
71288;SDS011;59068;52.502;9.860;2023-08-07T09:21:26;6.20;;;2.13;;
71288;SDS011;59068;52.502;9.860;2023-08-07T09:23:53;5.90;;;2.40;;
71288;SDS011;59068;52.502;9.860;2023-08-07T09:26:21;3.87;;;2.33;;
71288;SDS011;59068;52.502;9.860;2023-08-07T09:28:48;6.43;;;2.33;;
71288;SDS011;59068;52.502;9.860;2023-08-07T09:31:17;3.30;;;2.43;;
71288;SDS011;59068;52.502;9.860;2023-08-07T09:33:46;4.50;;;2.30;;
71288;SDS011;59068;52.502;9.860;2023-08-07T09:36:13;3.67;;;2.33;;
71288;SDS011;59068;52.502;9.860;2023-08-07T09:38:40;6.37;;;2.93;;
71288;SDS011;59068;52.502;9.860;2023-08-07T09:41:07;3.77;;;2.20;;
71288;SDS011;59068;52.502;9.860;2023-08-07T09:43:34;4.70;;;2.40;;
71288;SDS011;59068;52.502;9.860;2023-08-07T09:46:03;6.77;;;2.10;;
71288;SDS011;59068;52.502;9.860;2023-08-07T09:48:30;4.67;;;2.00;;
71288;SDS011;59068;52.502;9.860;2023-08-07T09:50:59;6.13;;;2.43;;
71288;SDS011;59068;52.502;9.860;2023-08-07T09:53:27;4.53;;;2.50;;
71288;SDS011;59068;52.502;9.860;2023-08-07T09:55:55;6.73;;;2.77;;
71288;SDS011;59068;52.502;9.860;2023-08-07T09:58:22;5.77;;;1.90;;
71288;SDS011;59068;52.502;9.860;2023-08-07T10:00:49;5.20;;;2.30;;
71288;SDS011;59068;52.502;9.860;2023-08-07T10:03:18;3.33;;;2.00;;
71288;SDS011;59068;52.502;9.860;2023-08-07T10:05:45;5.50;;;2.13;;
71288;SDS011;59068;52.502;9.860;2023-08-07T10:08:12;2.37;;;2.17;;
71288;SDS011;59068;52.502;9.860;2023-08-07T10:10:39;4.17;;;1.83;;
71288;SDS011;59068;52.502;9.860;2023-08-07T10:13:07;2.83;;;1.27;;
71288;SDS011;59068;52.502;9.860;2023-08-07T10:15:33;3.27;;;1.73;;
71288;SDS011;59068;52.502;9.860;2023-08-07T10:18:00;3.30;;;1.90;;
71288;SDS011;59068;52.502;9.860;2023-08-07T10:20:27;5.73;;;2.07;;
71288;SDS011;59068;52.502;9.860;2023-08-07T10:22:55;3.20;;;1.70;;
71288;SDS011;59068;52.502;9.860;2023-08-07T10:25:23;3.97;;;1.50;;
71288;SDS011;59068;52.502;9.860;2023-08-07T10:27:51;3.77;;;1.70;;
71288;SDS011;59068;52.502;9.860;2023-08-07T10:30:21;3.43;;;1.70;;
71288;SDS011;59068;52.502;9.860;2023-08-07T10:32:48;4.97;;;2.07;;
71288;SDS011;59068;52.502;9.860;2023-08-07T10:35:25;3.17;;;1.77;;
71288;SDS011;59068;52.502;9.860;2023-08-07T10:37:52;2.00;;;1.50;;
71288;SDS011;59068;52.502;9.860;2023-08-07T10:40:19;2.33;;;1.20;;
71288;SDS011;59068;52.502;9.860;2023-08-07T10:42:51;2.57;;;1.13;;
71288;SDS011;59068;52.502;9.860;2023-08-07T10:45:18;2.73;;;1.23;;
71288;SDS011;59068;52.502;9.860;2023-08-07T10:47:56;3.33;;;1.40;;
71288;SDS011;59068;52.502;9.860;2023-08-07T10:50:27;2.10;;;1.07;;
71288;SDS011;59068;52.502;9.860;2023-08-07T10:52:54;3.73;;;1.17;;
71288;SDS011;59068;52.502;9.860;2023-08-07T10:55:21;4.63;;;1.40;;
71288;SDS011;59068;52.502;9.860;2023-08-07T10:57:49;2.87;;;0.90;;
71288;SDS011;59068;52.502;9.860;2023-08-07T11:00:16;3.47;;;1.30;;
71288;SDS011;59068;52.502;9.860;2023-08-07T11:02:47;2.83;;;1.20;;
71288;SDS011;59068;52.502;9.860;2023-08-07T11:05:15;2.13;;;1.63;;
71288;SDS011;59068;52.502;9.860;2023-08-07T11:07:42;1.77;;;1.20;;
71288;SDS011;59068;52.502;9.860;2023-08-07T11:10:09;4.70;;;1.50;;
71288;SDS011;59068;52.502;9.860;2023-08-07T11:12:40;3.63;;;1.27;;
71288;SDS011;59068;52.502;9.860;2023-08-07T11:15:06;2.83;;;1.57;;
71288;SDS011;59068;52.502;9.860;2023-08-07T11:17:33;2.50;;;1.60;;
71288;SDS011;59068;52.502;9.860;2023-08-07T11:20:02;3.63;;;1.40;;
71288;SDS011;59068;52.502;9.860;2023-08-07T11:22:30;4.57;;;1.90;;
71288;SDS011;59068;52.502;9.860;2023-08-07T11:24:57;4.63;;;1.70;;
71288;SDS011;59068;52.502;9.860;2023-08-07T11:27:24;7.30;;;4.00;;
71288;SDS011;59068;52.502;9.860;2023-08-07T11:29:51;7.63;;;3.07;;
71288;SDS011;59068;52.502;9.860;2023-08-07T11:32:18;5.03;;;2.00;;
71288;SDS011;59068;52.502;9.860;2023-08-07T11:34:48;3.63;;;1.70;;
71288;SDS011;59068;52.502;9.860;2023-08-07T11:37:16;4.03;;;2.27;;
71288;SDS011;59068;52.502;9.860;2023-08-07T11:39:43;6.80;;;2.23;;
71288;SDS011;59068;52.502;9.860;2023-08-07T11:42:10;3.37;;;1.90;;
71288;SDS011;59068;52.502;9.860;2023-08-07T11:44:37;2.23;;;1.40;;
71288;SDS011;59068;52.502;9.860;2023-08-07T11:47:04;5.67;;;2.00;;
71288;SDS011;59068;52.502;9.860;2023-08-07T11:49:31;2.57;;;1.53;;
71288;SDS011;59068;52.502;9.860;2023-08-07T11:51:58;2.77;;;1.20;;
71288;SDS011;59068;52.502;9.860;2023-08-07T11:54:26;2.57;;;1.20;;
71288;SDS011;59068;52.502;9.860;2023-08-07T11:56:52;4.90;;;1.10;;
71288;SDS011;59068;52.502;9.860;2023-08-07T11:59:19;1.67;;;1.13;;
71288;SDS011;59068;52.502;9.860;2023-08-07T12:01:46;3.60;;;1.67;;
71288;SDS011;59068;52.502;9.860;2023-08-07T12:04:12;1.40;;;0.90;;
71288;SDS011;59068;52.502;9.860;2023-08-07T12:06:41;3.77;;;1.23;;
71288;SDS011;59068;52.502;9.860;2023-08-07T12:09:19;1.73;;;1.10;;
71288;SDS011;59068;52.502;9.860;2023-08-07T12:11:47;3.07;;;1.00;;
71288;SDS011;59068;52.502;9.860;2023-08-07T12:14:14;1.17;;;0.70;;
71288;SDS011;59068;52.502;9.860;2023-08-07T12:16:43;0.60;;;0.40;;
71288;SDS011;59068;52.502;9.860;2023-08-07T12:19:10;1.60;;;0.50;;
71288;SDS011;59068;52.502;9.860;2023-08-07T12:21:38;1.70;;;0.77;;
71288;SDS011;59068;52.502;9.860;2023-08-07T12:24:04;1.73;;;0.73;;
71288;SDS011;59068;52.502;9.860;2023-08-07T12:26:32;1.90;;;0.70;;
71288;SDS011;59068;52.502;9.860;2023-08-07T12:29:00;0.67;;;0.60;;
71288;SDS011;59068;52.502;9.860;2023-08-07T12:31:27;2.20;;;0.70;;
71288;SDS011;59068;52.502;9.860;2023-08-07T12:33:54;1.27;;;0.90;;
71288;SDS011;59068;52.502;9.860;2023-08-07T12:36:21;1.47;;;1.13;;
71288;SDS011;59068;52.502;9.860;2023-08-07T12:38:49;2.93;;;1.20;;
71288;SDS011;59068;52.502;9.860;2023-08-07T12:41:16;2.63;;;0.83;;
71288;SDS011;59068;52.502;9.860;2023-08-07T12:43:43;3.83;;;1.10;;
71288;SDS011;59068;52.502;9.860;2023-08-07T12:46:11;2.23;;;0.90;;
71288;SDS011;59068;52.502;9.860;2023-08-07T12:48:38;2.37;;;1.13;;
71288;SDS011;59068;52.502;9.860;2023-08-07T12:51:06;3.13;;;1.17;;
71288;SDS011;59068;52.502;9.860;2023-08-07T12:53:33;2.27;;;1.00;;
71288;SDS011;59068;52.502;9.860;2023-08-07T12:55:59;4.53;;;1.03;;
71288;SDS011;59068;52.502;9.860;2023-08-07T12:58:28;1.87;;;1.27;;
71288;SDS011;59068;52.502;9.860;2023-08-07T13:00:54;4.67;;;1.40;;
71288;SDS011;59068;52.502;9.860;2023-08-07T13:03:22;2.70;;;1.20;;
71288;SDS011;59068;52.502;9.860;2023-08-07T13:05:49;3.73;;;1.30;;
71288;SDS011;59068;52.502;9.860;2023-08-07T13:08:15;2.47;;;1.30;;
71288;SDS011;59068;52.502;9.860;2023-08-07T13:10:42;2.33;;;1.43;;
71288;SDS011;59068;52.502;9.860;2023-08-07T13:13:08;2.43;;;0.90;;
71288;SDS011;59068;52.502;9.860;2023-08-07T13:15:35;4.17;;;1.43;;
71288;SDS011;59068;52.502;9.860;2023-08-07T13:18:02;2.13;;;1.20;;
71288;SDS011;59068;52.502;9.860;2023-08-07T13:20:30;4.23;;;1.10;;
71288;SDS011;59068;52.502;9.860;2023-08-07T13:22:59;1.13;;;0.97;;
71288;SDS011;59068;52.502;9.860;2023-08-07T13:25:26;2.87;;;1.20;;
71288;SDS011;59068;52.502;9.860;2023-08-07T13:27:52;2.90;;;1.20;;
71288;SDS011;59068;52.502;9.860;2023-08-07T13:30:19;1.87;;;1.00;;
71288;SDS011;59068;52.502;9.860;2023-08-07T13:32:46;4.57;;;1.60;;
71288;SDS011;59068;52.502;9.860;2023-08-07T13:35:13;2.27;;;1.77;;
71288;SDS011;59068;52.502;9.860;2023-08-07T13:37:41;1.77;;;0.87;;
71288;SDS011;59068;52.502;9.860;2023-08-07T13:40:08;3.67;;;1.10;;
71288;SDS011;59068;52.502;9.860;2023-08-07T13:42:36;2.97;;;1.40;;
71288;SDS011;59068;52.502;9.860;2023-08-07T13:45:04;3.27;;;1.20;;
71288;SDS011;59068;52.502;9.860;2023-08-07T13:47:31;4.90;;;1.07;;
71288;SDS011;59068;52.502;9.860;2023-08-07T13:49:57;5.03;;;1.23;;
71288;SDS011;59068;52.502;9.860;2023-08-07T13:52:24;3.17;;;1.33;;
71288;SDS011;59068;52.502;9.860;2023-08-07T13:54:52;2.37;;;1.50;;
71288;SDS011;59068;52.502;9.860;2023-08-07T13:57:19;6.20;;;1.47;;
71288;SDS011;59068;52.502;9.860;2023-08-07T13:59:45;2.97;;;1.43;;
71288;SDS011;59068;52.502;9.860;2023-08-07T14:02:12;2.20;;;1.03;;
71288;SDS011;59068;52.502;9.860;2023-08-07T14:04:38;2.93;;;1.20;;
71288;SDS011;59068;52.502;9.860;2023-08-07T14:07:05;1.93;;;1.20;;
71288;SDS011;59068;52.502;9.860;2023-08-07T14:09:32;2.87;;;1.53;;
71288;SDS011;59068;52.502;9.860;2023-08-07T14:12:00;5.97;;;2.43;;
71288;SDS011;59068;52.502;9.860;2023-08-07T14:14:26;3.20;;;1.40;;
71288;SDS011;59068;52.502;9.860;2023-08-07T14:16:53;4.93;;;1.37;;
71288;SDS011;59068;52.502;9.860;2023-08-07T14:19:22;2.50;;;1.17;;
71288;SDS011;59068;52.502;9.860;2023-08-07T14:21:49;2.03;;;1.00;;
71288;SDS011;59068;52.502;9.860;2023-08-07T14:24:15;2.67;;;1.30;;
71288;SDS011;59068;52.502;9.860;2023-08-07T14:26:42;4.33;;;1.40;;
71288;SDS011;59068;52.502;9.860;2023-08-07T14:29:10;4.73;;;1.60;;
71288;SDS011;59068;52.502;9.860;2023-08-07T14:31:37;3.27;;;1.30;;
71288;SDS011;59068;52.502;9.860;2023-08-07T14:34:06;3.47;;;1.27;;
71288;SDS011;59068;52.502;9.860;2023-08-07T14:36:33;4.40;;;1.07;;
71288;SDS011;59068;52.502;9.860;2023-08-07T14:39:00;3.10;;;1.63;;
71288;SDS011;59068;52.502;9.860;2023-08-07T14:41:27;1.73;;;1.33;;
71288;SDS011;59068;52.502;9.860;2023-08-07T14:43:54;1.70;;;1.13;;
71288;SDS011;59068;52.502;9.860;2023-08-07T14:46:22;3.80;;;1.37;;